sensor_id;sensor_type;location;lat;lon;timestamp;pressure;altitude;pressure_sealevel;temperature;humidity
23321;BME280;33376;51.306;4.752;2023-12-20T00:01:15;102937.91;;;5.36;nan
23321;BME280;33376;51.306;4.752;2023-12-20T00:03:41;102946.66;;;5.41;nan
23321;BME280;33376;51.306;4.752;2023-12-20T00:06:06;102954.59;;;5.50;nan
23321;BME280;33376;51.306;4.752;2023-12-20T00:08:31;102955.44;;;5.54;nan
23321;BME280;33376;51.306;4.752;2023-12-20T00:10:57;102947.53;;;5.69;nan
23321;BME280;33376;51.306;4.752;2023-12-20T00:13:22;102964.22;;;5.51;nan
23321;BME280;33376;51.306;4.752;2023-12-20T00:15:47;102960.69;;;5.54;nan
23321;BME280;33376;51.306;4.752;2023-12-20T00:18:12;102942.28;;;5.45;nan
23321;BME280;33376;51.306;4.752;2023-12-20T00:20:38;102957.22;;;5.50;nan
23321;BME280;33376;51.306;4.752;2023-12-20T00:23:03;102940.53;;;5.60;nan
23321;BME280;33376;51.306;4.752;2023-12-20T00:25:28;102934.38;;;5.64;nan
23321;BME280;33376;51.306;4.752;2023-12-20T00:27:54;102925.63;;;5.56;nan
23321;BME280;33376;51.306;4.752;2023-12-20T00:30:19;102931.75;;;5.61;nan
23321;BME280;33376;51.306;4.752;2023-12-20T00:32:44;102917.72;;;5.40;nan
23321;BME280;33376;51.306;4.752;2023-12-20T00:35:13;102914.22;;;5.30;nan
23321;BME280;33376;51.306;4.752;2023-12-20T00:37:39;102907.22;;;5.26;nan
23321;BME280;33376;51.306;4.752;2023-12-20T00:40:04;102908.97;;;5.24;nan
23321;BME280;33376;51.306;4.752;2023-12-20T00:42:32;102914.25;;;5.23;nan
23321;BME280;33376;51.306;4.752;2023-12-20T00:44:58;102912.50;;;5.25;nan
23321;BME280;33376;51.306;4.752;2023-12-20T00:47:23;102892.31;;;5.16;nan
23321;BME280;33376;51.306;4.752;2023-12-20T00:49:49;102891.44;;;5.13;nan
23321;BME280;33376;51.306;4.752;2023-12-20T00:52:14;102879.19;;;5.06;nan
23321;BME280;33376;51.306;4.752;2023-12-20T00:54:39;102830.97;;;4.99;nan
23321;BME280;33376;51.306;4.752;2023-12-20T00:57:04;102794.16;;;5.04;nan
23321;BME280;33376;51.306;4.752;2023-12-20T00:59:30;102789.78;;;4.94;nan
23321;BME280;33376;51.306;4.752;2023-12-20T01:01:55;102781.91;;;4.95;nan
23321;BME280;33376;51.306;4.752;2023-12-20T01:04:20;102788.03;;;4.93;nan
23321;BME280;33376;51.306;4.752;2023-12-20T01:06:46;102788.91;;;4.89;nan
23321;BME280;33376;51.306;4.752;2023-12-20T01:09:12;102797.69;;;4.86;nan
23321;BME280;33376;51.306;4.752;2023-12-20T01:11:37;102795.03;;;4.92;nan
23321;BME280;33376;51.306;4.752;2023-12-20T01:14:02;102799.44;;;4.84;nan
23321;BME280;33376;51.306;4.752;2023-12-20T01:16:28;102801.16;;;4.81;nan
23321;BME280;33376;51.306;4.752;2023-12-20T01:18:53;102807.31;;;4.74;nan
23321;BME280;33376;51.306;4.752;2023-12-20T01:21:18;102812.56;;;4.77;nan
23321;BME280;33376;51.306;4.752;2023-12-20T01:23:43;102812.56;;;4.83;nan
23321;BME280;33376;51.306;4.752;2023-12-20T01:26:09;102821.34;;;4.79;nan
23321;BME280;33376;51.306;4.752;2023-12-20T01:28:34;102825.72;;;4.80;nan
23321;BME280;33376;51.306;4.752;2023-12-20T01:30:59;102824.81;;;4.76;nan
23321;BME280;33376;51.306;4.752;2023-12-20T01:33:24;102829.19;;;4.76;nan
23321;BME280;33376;51.306;4.752;2023-12-20T01:35:50;102842.34;;;4.88;nan
23321;BME280;33376;51.306;4.752;2023-12-20T01:38:15;102830.97;;;4.78;nan
23321;BME280;33376;51.306;4.752;2023-12-20T01:40:43;102822.22;;;4.88;nan
23321;BME280;33376;51.306;4.752;2023-12-20T01:43:09;102822.19;;;4.79;nan
23321;BME280;33376;51.306;4.752;2023-12-20T01:45:35;102835.34;;;5.17;nan
23321;BME280;33376;51.306;4.752;2023-12-20T01:48:00;102814.31;;;4.85;nan
23321;BME280;33376;51.306;4.752;2023-12-20T01:50:27;102822.19;;;4.73;nan
23321;BME280;33376;51.306;4.752;2023-12-20T01:52:53;102823.09;;;4.72;nan
23321;BME280;33376;51.306;4.752;2023-12-20T01:55:21;102834.44;;;4.70;nan
23321;BME280;33376;51.306;4.752;2023-12-20T01:57:46;102840.59;;;4.75;nan
23321;BME280;33376;51.306;4.752;2023-12-20T02:00:12;102842.38;;;4.79;nan
23321;BME280;33376;51.306;4.752;2023-12-20T02:02:39;102832.72;;;4.84;nan
23321;BME280;33376;51.306;4.752;2023-12-20T02:05:08;102844.13;;;4.96;nan
23321;BME280;33376;51.306;4.752;2023-12-20T02:07:34;102845.84;;;5.11;nan
23321;BME280;33376;51.306;4.752;2023-12-20T02:10:02;102841.47;;;5.10;nan
23321;BME280;33376;51.306;4.752;2023-12-20T02:12:27;102850.25;;;5.12;nan
23321;BME280;33376;51.306;4.752;2023-12-20T02:14:52;102863.41;;;5.13;nan
23321;BME280;33376;51.306;4.752;2023-12-20T02:17:19;102869.53;;;5.21;nan
23321;BME280;33376;51.306;4.752;2023-12-20T02:19:44;102879.16;;;5.30;nan
23321;BME280;33376;51.306;4.752;2023-12-20T02:22:10;102881.81;;;5.33;nan
23321;BME280;33376;51.306;4.752;2023-12-20T02:24:35;102882.69;;;5.41;nan
23321;BME280;33376;51.306;4.752;2023-12-20T02:27:00;102885.28;;;5.51;nan
23321;BME280;33376;51.306;4.752;2023-12-20T02:29:26;102890.56;;;5.50;nan
23321;BME280;33376;51.306;4.752;2023-12-20T02:31:52;102889.66;;;5.45;nan
23321;BME280;33376;51.306;4.752;2023-12-20T02:34:17;102891.41;;;5.47;nan
23321;BME280;33376;51.306;4.752;2023-12-20T02:36:42;102892.28;;;5.31;nan
23321;BME280;33376;51.306;4.752;2023-12-20T02:39:07;102881.78;;;5.25;nan
23321;BME280;33376;51.306;4.752;2023-12-20T02:41:33;102890.56;;;5.30;nan
23321;BME280;33376;51.306;4.752;2023-12-20T02:43:58;102895.81;;;5.54;nan
23321;BME280;33376;51.306;4.752;2023-12-20T02:46:23;102891.38;;;5.67;nan
23321;BME280;33376;51.306;4.752;2023-12-20T02:48:49;102894.03;;;5.61;nan
23321;BME280;33376;51.306;4.752;2023-12-20T02:51:14;102890.53;;;5.60;nan
23321;BME280;33376;51.306;4.752;2023-12-20T02:53:39;102880.84;;;5.70;nan
23321;BME280;33376;51.306;4.752;2023-12-20T02:56:04;102886.13;;;5.86;nan
23321;BME280;33376;51.306;4.752;2023-12-20T02:58:30;102879.09;;;5.76;nan
23321;BME280;33376;51.306;4.752;2023-12-20T03:00:55;102876.44;;;5.76;nan
23321;BME280;33376;51.306;4.752;2023-12-20T03:03:20;102878.22;;;5.83;nan
23321;BME280;33376;51.306;4.752;2023-12-20T03:05:45;102875.59;;;5.80;nan
23321;BME280;33376;51.306;4.752;2023-12-20T03:08:11;102885.22;;;6.00;nan
23321;BME280;33376;51.306;4.752;2023-12-20T03:10:36;102851.03;;;5.71;nan
23321;BME280;33376;51.306;4.752;2023-12-20T03:13:02;102858.88;;;5.92;nan
23321;BME280;33376;51.306;4.752;2023-12-20T03:15:27;102865.84;;;6.08;nan
23321;BME280;33376;51.306;4.752;2023-12-20T03:17:52;102854.47;;;6.03;nan
23321;BME280;33376;51.306;4.752;2023-12-20T03:20:17;102852.69;;;6.08;nan
23321;BME280;33376;51.306;4.752;2023-12-20T03:22:43;102850.91;;;6.12;nan
23321;BME280;33376;51.306;4.752;2023-12-20T03:25:08;102845.69;;;6.06;nan
23321;BME280;33376;51.306;4.752;2023-12-20T03:27:33;102841.31;;;5.95;nan
23321;BME280;33376;51.306;4.752;2023-12-20T03:29:58;102834.34;;;5.75;nan
23321;BME280;33376;51.306;4.752;2023-12-20T03:32:24;102836.09;;;5.79;nan
23321;BME280;33376;51.306;4.752;2023-12-20T03:34:49;102829.06;;;5.79;nan
23321;BME280;33376;51.306;4.752;2023-12-20T03:37:14;102841.38;;;5.86;nan
23321;BME280;33376;51.306;4.752;2023-12-20T03:39:40;102859.75;;;5.92;nan
23321;BME280;33376;51.306;4.752;2023-12-20T03:42:05;102870.97;;;6.37;nan
23321;BME280;33376;51.306;4.752;2023-12-20T03:44:30;102848.13;;;6.42;nan
23321;BME280;33376;51.306;4.752;2023-12-20T03:46:56;102869.88;;;6.77;nan
23321;BME280;33376;51.306;4.752;2023-12-20T03:49:21;102822.69;;;6.38;nan
23321;BME280;33376;51.306;4.752;2023-12-20T03:51:46;102782.41;;;6.21;nan
23321;BME280;33376;51.306;4.752;2023-12-20T03:54:12;102790.13;;;6.46;nan
23321;BME280;33376;51.306;4.752;2023-12-20T03:56:37;102773.59;;;6.23;nan
23321;BME280;33376;51.306;4.752;2023-12-20T03:59:02;102732.53;;;5.89;nan
23321;BME280;33376;51.306;4.752;2023-12-20T04:01:28;102755.22;;;6.10;nan
23321;BME280;33376;51.306;4.752;2023-12-20T04:03:53;102747.34;;;6.07;nan
23321;BME280;33376;51.306;4.752;2023-12-20T04:06:18;102724.63;;;5.89;nan
23321;BME280;33376;51.306;4.752;2023-12-20T04:08:44;102706.25;;;5.84;nan
23321;BME280;33376;51.306;4.752;2023-12-20T04:11:09;102688.72;;;5.73;nan
23321;BME280;33376;51.306;4.752;2023-12-20T04:13:34;102703.59;;;5.86;nan
23321;BME280;33376;51.306;4.752;2023-12-20T04:15:59;102697.47;;;5.88;nan
23321;BME280;33376;51.306;4.752;2023-12-20T04:18:25;102686.06;;;5.85;nan
23321;BME280;33376;51.306;4.752;2023-12-20T04:20:50;102672.91;;;5.79;nan
23321;BME280;33376;51.306;4.752;2023-12-20T04:23:16;102669.41;;;5.78;nan
23321;BME280;33376;51.306;4.752;2023-12-20T04:25:42;102639.69;;;5.55;nan
23321;BME280;33376;51.306;4.752;2023-12-20T04:28:07;102674.66;;;5.84;nan
23321;BME280;33376;51.306;4.752;2023-12-20T04:30:32;102664.06;;;5.95;nan
23321;BME280;33376;51.306;4.752;2023-12-20T04:32:57;102619.53;;;5.56;nan
23321;BME280;33376;51.306;4.752;2023-12-20T04:35:26;102664.19;;;5.71;nan
23321;BME280;33376;51.306;4.752;2023-12-20T04:37:51;102588.72;;;5.76;nan
23321;BME280;33376;51.306;4.752;2023-12-20T04:40:16;102618.53;;;5.75;nan
23321;BME280;33376;51.306;4.752;2023-12-20T04:42:42;102620.41;;;5.56;nan
23321;BME280;33376;51.306;4.752;2023-12-20T04:45:07;102615.34;;;5.17;nan
23321;BME280;33376;51.306;4.752;2023-12-20T04:47:33;102652.09;;;5.35;nan
23321;BME280;33376;51.306;4.752;2023-12-20T04:50:01;102675.78;;;5.32;nan
23321;BME280;33376;51.306;4.752;2023-12-20T04:52:29;102686.22;;;5.52;nan
23321;BME280;33376;51.306;4.752;2023-12-20T04:54:55;102675.75;;;5.37;nan
23321;BME280;33376;51.306;4.752;2023-12-20T04:57:21;102666.22;;;5.04;nan
23321;BME280;33376;51.306;4.752;2023-12-20T04:59:46;102663.59;;;5.07;nan
23321;BME280;33376;51.306;4.752;2023-12-20T05:02:12;102726.16;;;6.26;nan
23321;BME280;33376;51.306;4.752;2023-12-20T05:04:37;102632.03;;;5.09;nan
23321;BME280;33376;51.306;4.752;2023-12-20T05:07:02;102643.47;;;4.87;nan
23321;BME280;33376;51.306;4.752;2023-12-20T05:09:29;102651.38;;;4.81;nan
23321;BME280;33376;51.306;4.752;2023-12-20T05:11:55;102653.19;;;4.64;nan
23321;BME280;33376;51.306;4.752;2023-12-20T05:14:20;102709.91;;;5.44;nan
23321;BME280;33376;51.306;4.752;2023-12-20T05:16:45;102700.44;;;4.70;nan
23321;BME280;33376;51.306;4.752;2023-12-20T05:19:10;102717.97;;;4.60;nan
23321;BME280;33376;51.306;4.752;2023-12-20T05:21:36;102739.88;;;4.56;nan
23321;BME280;33376;51.306;4.752;2023-12-20T05:24:01;102771.41;;;4.64;nan
23321;BME280;33376;51.306;4.752;2023-12-20T05:26:26;102783.66;;;4.78;nan
23321;BME280;33376;51.306;4.752;2023-12-20T05:28:52;102751.25;;;4.43;nan
23321;BME280;33376;51.306;4.752;2023-12-20T05:31:17;102772.25;;;4.38;nan
23321;BME280;33376;51.306;4.752;2023-12-20T05:33:43;102802.94;;;4.56;nan
23321;BME280;33376;51.306;4.752;2023-12-20T05:36:08;102806.41;;;4.43;nan
23321;BME280;33376;51.306;4.752;2023-12-20T05:38:36;102804.63;;;4.40;nan
23321;BME280;33376;51.306;4.752;2023-12-20T05:41:01;102808.97;;;4.29;nan
23321;BME280;33376;51.306;4.752;2023-12-20T05:43:26;102830.97;;;4.78;nan
23321;BME280;33376;51.306;4.752;2023-12-20T05:45:52;102864.25;;;4.67;nan
23321;BME280;33376;51.306;4.752;2023-12-20T05:48:17;102844.97;;;4.56;nan
23321;BME280;33376;51.306;4.752;2023-12-20T05:50:42;102863.34;;;4.77;nan
23321;BME280;33376;51.306;4.752;2023-12-20T05:53:07;102875.66;;;4.80;nan
23321;BME280;33376;51.306;4.752;2023-12-20T05:55:33;102888.78;;;4.77;nan
23321;BME280;33376;51.306;4.752;2023-12-20T05:57:58;102894.03;;;4.86;nan
23321;BME280;33376;51.306;4.752;2023-12-20T06:00:23;102895.78;;;4.85;nan
23321;BME280;33376;51.306;4.752;2023-12-20T06:02:50;102898.44;;;4.93;nan
23321;BME280;33376;51.306;4.752;2023-12-20T06:05:15;102887.94;;;4.96;nan
23321;BME280;33376;51.306;4.752;2023-12-20T06:07:40;102877.38;;;4.84;nan
23321;BME280;33376;51.306;4.752;2023-12-20T06:10:06;102877.41;;;4.90;nan
23321;BME280;33376;51.306;4.752;2023-12-20T06:12:32;102866.88;;;4.82;nan
23321;BME280;33376;51.306;4.752;2023-12-20T06:15:00;102863.38;;;4.80;nan
23321;BME280;33376;51.306;4.752;2023-12-20T06:17:25;102864.28;;;4.99;nan
23321;BME280;33376;51.306;4.752;2023-12-20T06:19:51;102857.25;;;4.83;nan
23321;BME280;33376;51.306;4.752;2023-12-20T06:22:16;102866.00;;;4.95;nan
23321;BME280;33376;51.306;4.752;2023-12-20T06:24:41;102862.53;;;5.05;nan
23321;BME280;33376;51.306;4.752;2023-12-20T06:27:06;102867.78;;;5.02;nan
23321;BME280;33376;51.306;4.752;2023-12-20T06:29:32;102859.00;;;5.09;nan
23321;BME280;33376;51.306;4.752;2023-12-20T06:31:57;102862.53;;;5.05;nan
23321;BME280;33376;51.306;4.752;2023-12-20T06:34:22;102856.34;;;4.87;nan
23321;BME280;33376;51.306;4.752;2023-12-20T06:36:48;102852.00;;;4.81;nan
23321;BME280;33376;51.306;4.752;2023-12-20T06:39:13;102859.88;;;4.87;nan
23321;BME280;33376;51.306;4.752;2023-12-20T06:41:39;102851.09;;;4.85;nan
23321;BME280;33376;51.306;4.752;2023-12-20T06:44:04;102845.84;;;4.87;nan
23321;BME280;33376;51.306;4.752;2023-12-20T06:46:30;102844.09;;;4.93;nan
23321;BME280;33376;51.306;4.752;2023-12-20T06:48:55;102841.50;;;5.04;nan
23321;BME280;33376;51.306;4.752;2023-12-20T06:51:20;102845.81;;;5.39;nan
23321;BME280;33376;51.306;4.752;2023-12-20T06:53:46;102840.56;;;5.39;nan
23321;BME280;33376;51.306;4.752;2023-12-20T06:56:11;102838.78;;;5.47;nan
23321;BME280;33376;51.306;4.752;2023-12-20T06:58:37;102832.66;;;5.51;nan
23321;BME280;33376;51.306;4.752;2023-12-20T07:01:03;102823.00;;;5.46;nan
23321;BME280;33376;51.306;4.752;2023-12-20T07:03:29;102822.16;;;5.44;nan
23321;BME280;33376;51.306;4.752;2023-12-20T07:05:54;102810.75;;;5.40;nan
23321;BME280;33376;51.306;4.752;2023-12-20T07:08:19;102814.25;;;5.47;nan
23321;BME280;33376;51.306;4.752;2023-12-20T07:10:45;102807.25;;;5.41;nan
23321;BME280;33376;51.306;4.752;2023-12-20T07:13:10;102803.72;;;5.50;nan
23321;BME280;33376;51.306;4.752;2023-12-20T07:15:36;102789.69;;;5.49;nan
23321;BME280;33376;51.306;4.752;2023-12-20T07:18:02;102799.34;;;5.50;nan
23321;BME280;33376;51.306;4.752;2023-12-20T07:20:27;102799.34;;;5.53;nan
23321;BME280;33376;51.306;4.752;2023-12-20T07:22:53;102794.94;;;5.54;nan
23321;BME280;33376;51.306;4.752;2023-12-20T07:25:18;102786.13;;;5.67;nan
23321;BME280;33376;51.306;4.752;2023-12-20T07:27:45;102785.25;;;5.68;nan
23321;BME280;33376;51.306;4.752;2023-12-20T07:30:10;102785.28;;;5.57;nan
23321;BME280;33376;51.306;4.752;2023-12-20T07:32:35;102797.53;;;5.57;nan
23321;BME280;33376;51.306;4.752;2023-12-20T07:35:01;102787.03;;;5.64;nan
23321;BME280;33376;51.306;4.752;2023-12-20T07:37:28;102774.72;;;5.62;nan
23321;BME280;33376;51.306;4.752;2023-12-20T07:39:53;102782.59;;;5.66;nan
23321;BME280;33376;51.306;4.752;2023-12-20T07:42:18;102771.25;;;5.61;nan
23321;BME280;33376;51.306;4.752;2023-12-20T07:44:43;102769.47;;;5.63;nan
23321;BME280;33376;51.306;4.752;2023-12-20T07:47:09;102754.59;;;5.58;nan
23321;BME280;33376;51.306;4.752;2023-12-20T07:49:34;102753.69;;;5.63;nan
23321;BME280;33376;51.306;4.752;2023-12-20T07:51:59;102743.16;;;5.59;nan
23321;BME280;33376;51.306;4.752;2023-12-20T07:54:24;102737.03;;;5.61;nan
23321;BME280;33376;51.306;4.752;2023-12-20T07:56:50;102737.03;;;5.61;nan
23321;BME280;33376;51.306;4.752;2023-12-20T07:59:15;102722.13;;;5.60;nan
23321;BME280;33376;51.306;4.752;2023-12-20T08:01:40;102718.59;;;5.66;nan
23321;BME280;33376;51.306;4.752;2023-12-20T08:04:07;102705.41;;;5.72;nan
23321;BME280;33376;51.306;4.752;2023-12-20T08:06:32;102715.91;;;5.85;nan
23321;BME280;33376;51.306;4.752;2023-12-20T08:08:57;102708.81;;;5.92;nan
23321;BME280;33376;51.306;4.752;2023-12-20T08:11:22;102685.06;;;6.03;nan
23321;BME280;33376;51.306;4.752;2023-12-20T08:13:48;102667.47;;;6.09;nan
23321;BME280;33376;51.306;4.752;2023-12-20T08:16:13;102647.25;;;6.14;nan
23321;BME280;33376;51.306;4.752;2023-12-20T08:18:40;102623.53;;;6.16;nan
23321;BME280;33376;51.306;4.752;2023-12-20T08:21:06;102610.28;;;6.23;nan
23321;BME280;33376;51.306;4.752;2023-12-20T08:23:34;102593.56;;;6.26;nan
23321;BME280;33376;51.306;4.752;2023-12-20T08:26:06;102576.88;;;6.30;nan
23321;BME280;33376;51.306;4.752;2023-12-20T08:28:31;102559.25;;;6.36;nan
23321;BME280;33376;51.306;4.752;2023-12-20T08:30:57;102543.50;;;6.30;nan
23321;BME280;33376;51.306;4.752;2023-12-20T08:33:22;102524.28;;;6.21;nan
23321;BME280;33376;51.306;4.752;2023-12-20T08:35:47;102509.31;;;6.23;nan
23321;BME280;33376;51.306;4.752;2023-12-20T08:38:12;102499.63;;;6.26;nan
23321;BME280;33376;51.306;4.752;2023-12-20T08:40:38;102486.44;;;6.28;nan
23321;BME280;33376;51.306;4.752;2023-12-20T08:43:03;102484.63;;;6.33;nan
23321;BME280;33376;51.306;4.752;2023-12-20T08:45:28;102460.03;;;6.34;nan
23321;BME280;33376;51.306;4.752;2023-12-20T08:47:54;102440.66;;;6.41;nan
23321;BME280;33376;51.306;4.752;2023-12-20T08:50:19;102431.88;;;6.39;nan
23321;BME280;33376;51.306;4.752;2023-12-20T08:52:44;102406.47;;;6.36;nan
23321;BME280;33376;51.306;4.752;2023-12-20T08:55:09;102401.34;;;6.23;nan
23321;BME280;33376;51.306;4.752;2023-12-20T08:57:35;102402.22;;;6.23;nan
23321;BME280;33376;51.306;4.752;2023-12-20T09:00:01;102402.19;;;6.25;nan
23321;BME280;33376;51.306;4.752;2023-12-20T09:02:26;102393.47;;;6.20;nan
23321;BME280;33376;51.306;4.752;2023-12-20T09:04:51;102405.75;;;6.24;nan
23321;BME280;33376;51.306;4.752;2023-12-20T09:07:25;102390.75;;;6.27;nan
23321;BME280;33376;51.306;4.752;2023-12-20T09:09:51;102387.16;;;6.34;nan
23321;BME280;33376;51.306;4.752;2023-12-20T09:12:17;102380.09;;;6.38;nan
23321;BME280;33376;51.306;4.752;2023-12-20T09:14:43;102381.66;;;6.52;nan
23321;BME280;33376;51.306;4.752;2023-12-20T09:17:09;102389.31;;;6.69;nan
23321;BME280;33376;51.306;4.752;2023-12-20T09:19:36;102381.28;;;6.79;nan
23321;BME280;33376;51.306;4.752;2023-12-20T09:22:01;102363.53;;;6.89;nan
23321;BME280;33376;51.306;4.752;2023-12-20T09:24:27;102353.66;;;7.03;nan
23321;BME280;33376;51.306;4.752;2023-12-20T09:26:52;102354.47;;;7.06;nan
23321;BME280;33376;51.306;4.752;2023-12-20T09:29:17;102334.19;;;7.10;nan
23321;BME280;33376;51.306;4.752;2023-12-20T09:31:44;102327.94;;;7.15;nan
23321;BME280;33376;51.306;4.752;2023-12-20T09:34:09;102327.03;;;7.18;nan
23321;BME280;33376;51.306;4.752;2023-12-20T09:36:34;102303.13;;;7.27;nan
23321;BME280;33376;51.306;4.752;2023-12-20T09:39:01;102303.03;;;7.31;nan
23321;BME280;33376;51.306;4.752;2023-12-20T09:41:26;102295.03;;;7.36;nan
23321;BME280;33376;51.306;4.752;2023-12-20T09:43:53;102302.03;;;7.38;nan
23321;BME280;33376;51.306;4.752;2023-12-20T09:46:19;102302.63;;;7.54;nan
23321;BME280;33376;51.306;4.752;2023-12-20T09:48:49;102294.69;;;7.54;nan
23321;BME280;33376;51.306;4.752;2023-12-20T09:51:15;102295.59;;;7.52;nan
23321;BME280;33376;51.306;4.752;2023-12-20T09:53:40;102293.94;;;7.47;nan
23321;BME280;33376;51.306;4.752;2023-12-20T09:56:06;102288.50;;;7.55;nan
23321;BME280;33376;51.306;4.752;2023-12-20T09:58:32;102293.13;;;7.44;nan
23321;BME280;33376;51.306;4.752;2023-12-20T10:00:57;102292.13;;;7.51;nan
23321;BME280;33376;51.306;4.752;2023-12-20T10:03:24;102289.47;;;7.51;nan
23321;BME280;33376;51.306;4.752;2023-12-20T10:05:50;102291.84;;;7.65;nan
23321;BME280;33376;51.306;4.752;2023-12-20T10:08:17;102278.09;;;7.47;nan
23321;BME280;33376;51.306;4.752;2023-12-20T10:10:42;102275.38;;;7.52;nan
23321;BME280;33376;51.306;4.752;2023-12-20T10:13:09;102272.72;;;7.52;nan
23321;BME280;33376;51.306;4.752;2023-12-20T10:15:35;102262.09;;;7.57;nan
23321;BME280;33376;51.306;4.752;2023-12-20T10:18:01;102271.00;;;7.51;nan
23321;BME280;33376;51.306;4.752;2023-12-20T10:20:27;102277.13;;;7.52;nan
23321;BME280;33376;51.306;4.752;2023-12-20T10:22:54;102278.91;;;7.53;nan
23321;BME280;33376;51.306;4.752;2023-12-20T10:25:22;102285.97;;;7.51;nan
23321;BME280;33376;51.306;4.752;2023-12-20T10:27:47;102285.88;;;7.55;nan
23321;BME280;33376;51.306;4.752;2023-12-20T10:30:15;102282.25;;;7.61;nan
23321;BME280;33376;51.306;4.752;2023-12-20T10:32:41;102276.97;;;7.61;nan
23321;BME280;33376;51.306;4.752;2023-12-20T10:35:06;102276.91;;;7.64;nan
23321;BME280;33376;51.306;4.752;2023-12-20T10:37:35;102269.97;;;7.58;nan
23321;BME280;33376;51.306;4.752;2023-12-20T10:40:01;102260.34;;;7.56;nan
23321;BME280;33376;51.306;4.752;2023-12-20T10:42:28;102257.69;;;7.57;nan
23321;BME280;33376;51.306;4.752;2023-12-20T10:44:54;102254.06;;;7.61;nan
23321;BME280;33376;51.306;4.752;2023-12-20T10:47:20;102233.91;;;7.59;nan
23321;BME280;33376;51.306;4.752;2023-12-20T10:49:45;102237.38;;;7.61;nan
23321;BME280;33376;51.306;4.752;2023-12-20T10:52:11;102240.81;;;7.66;nan
23321;BME280;33376;51.306;4.752;2023-12-20T10:54:37;102221.47;;;7.64;nan
23321;BME280;33376;51.306;4.752;2023-12-20T10:57:03;102230.13;;;7.70;nan
23321;BME280;33376;51.306;4.752;2023-12-20T10:59:30;102223.88;;;7.74;nan
23321;BME280;33376;51.306;4.752;2023-12-20T11:01:58;102223.78;;;7.79;nan
23321;BME280;33376;51.306;4.752;2023-12-20T11:04:28;102230.03;;;7.75;nan
23321;BME280;33376;51.306;4.752;2023-12-20T11:06:59;102224.78;;;7.73;nan
23321;BME280;33376;51.306;4.752;2023-12-20T11:09:31;102222.22;;;7.70;nan
23321;BME280;33376;51.306;4.752;2023-12-20T11:14:45;102216.94;;;7.70;nan
23321;BME280;33376;51.306;4.752;2023-12-20T11:17:11;102222.22;;;7.70;nan
23321;BME280;33376;51.306;4.752;2023-12-20T11:20:03;102217.03;;;7.66;nan
23321;BME280;33376;51.306;4.752;2023-12-20T11:22:31;102209.94;;;7.68;nan
23321;BME280;33376;51.306;4.752;2023-12-20T11:25:15;102208.03;;;7.74;nan
23321;BME280;33376;51.306;4.752;2023-12-20T11:27:41;102198.50;;;7.69;nan
23321;BME280;33376;51.306;4.752;2023-12-20T11:30:08;102203.59;;;7.76;nan
23321;BME280;33376;51.306;4.752;2023-12-20T11:32:35;102194.03;;;7.72;nan
23321;BME280;33376;51.306;4.752;2023-12-20T11:37:36;102182.59;;;7.72;nan
23321;BME280;33376;51.306;4.752;2023-12-20T11:40:02;102183.50;;;7.69;nan
23321;BME280;33376;51.306;4.752;2023-12-20T11:42:32;102183.50;;;7.69;nan
23321;BME280;33376;51.306;4.752;2023-12-20T11:44:57;102177.28;;;7.73;nan
23321;BME280;33376;51.306;4.752;2023-12-20T11:47:24;102179.69;;;7.82;nan
23321;BME280;33376;51.306;4.752;2023-12-20T11:49:50;102169.13;;;7.82;nan
23321;BME280;33376;51.306;4.752;2023-12-20T11:52:16;102173.00;;;7.66;nan
23321;BME280;33376;51.306;4.752;2023-12-20T11:54:41;102170.28;;;7.72;nan
23321;BME280;33376;51.306;4.752;2023-12-20T11:57:06;102173.81;;;7.70;nan
23321;BME280;33376;51.306;4.752;2023-12-20T11:59:32;102183.81;;;7.56;nan
23321;BME280;33376;51.306;4.752;2023-12-20T12:01:58;102207.38;;;7.65;nan
23321;BME280;33376;51.306;4.752;2023-12-20T12:04:26;102208.00;;;7.76;nan
23321;BME280;33376;51.306;4.752;2023-12-20T12:06:51;102207.91;;;7.82;nan
23321;BME280;33376;51.306;4.752;2023-12-20T12:09:16;102193.97;;;7.75;nan
23321;BME280;33376;51.306;4.752;2023-12-20T12:11:42;102190.25;;;7.82;nan
23321;BME280;33376;51.306;4.752;2023-12-20T12:14:08;102191.38;;;7.72;nan
23321;BME280;33376;51.306;4.752;2023-12-20T12:16:33;102191.28;;;7.77;nan
23321;BME280;33376;51.306;4.752;2023-12-20T12:18:58;102188.75;;;7.72;nan
23321;BME280;33376;51.306;4.752;2023-12-20T12:21:24;102183.81;;;7.95;nan
23321;BME280;33376;51.306;4.752;2023-12-20T12:23:49;102187.44;;;7.91;nan
23321;BME280;33376;51.306;4.752;2023-12-20T12:26:15;102176.88;;;7.91;nan
23321;BME280;33376;51.306;4.752;2023-12-20T12:28:40;102182.81;;;8.01;nan
23321;BME280;33376;51.306;4.752;2023-12-20T12:31:06;102175.66;;;8.04;nan
23321;BME280;33376;51.306;4.752;2023-12-20T12:33:32;102170.34;;;8.06;nan
23321;BME280;33376;51.306;4.752;2023-12-20T12:35:57;102164.25;;;8.04;nan
23321;BME280;33376;51.306;4.752;2023-12-20T12:38:23;102146.56;;;8.06;nan
23321;BME280;33376;51.306;4.752;2023-12-20T12:40:49;102140.38;;;8.08;nan
23321;BME280;33376;51.306;4.752;2023-12-20T12:43:14;102127.28;;;8.04;nan
23321;BME280;33376;51.306;4.752;2023-12-20T12:45:40;102118.44;;;8.05;nan
23321;BME280;33376;51.306;4.752;2023-12-20T12:48:05;102114.56;;;8.19;nan
23321;BME280;33376;51.306;4.752;2023-12-20T12:50:30;102105.84;;;8.16;nan
23321;BME280;33376;51.306;4.752;2023-12-20T12:52:56;102101.44;;;8.16;nan
23321;BME280;33376;51.306;4.752;2023-12-20T12:55:21;102090.34;;;8.02;nan
23321;BME280;33376;51.306;4.752;2023-12-20T12:57:46;102085.66;;;8.13;nan
23321;BME280;33376;51.306;4.752;2023-12-20T13:00:12;102082.09;;;8.14;nan
23321;BME280;33376;51.306;4.752;2023-12-20T13:02:37;102080.25;;;8.18;nan
23321;BME280;33376;51.306;4.752;2023-12-20T13:05:06;102065.38;;;8.15;nan
23321;BME280;33376;51.306;4.752;2023-12-20T13:07:32;102056.69;;;8.10;nan
23321;BME280;33376;51.306;4.752;2023-12-20T13:09:58;102033.66;;;8.14;nan
23321;BME280;33376;51.306;4.752;2023-12-20T13:12:23;102028.38;;;8.14;nan
23321;BME280;33376;51.306;4.752;2023-12-20T13:14:48;102024.91;;;8.13;nan
23321;BME280;33376;51.306;4.752;2023-12-20T13:17:14;102012.66;;;8.09;nan
23321;BME280;33376;51.306;4.752;2023-12-20T13:19:39;101974.53;;;8.19;nan